Avon, Ohio
Current Conditions -  °F | °C
As of 4:51 AM on Saturday 20 Dec 2014 (Local Time) from KCLE Reporting Station
Overcast Overcast  
Wind Chill: -6°   Ceiling: 2700
Heat Index: -2°   Visibility: 10mi
Dew Point: -7°   Wind: 6mph
Humidity: 72%   Direction: 210°SSW
Pressure: 30.32"   Gusts: NA
Location:  41.47°N, 82.02°W
Report Text: KCLE 200951Z 21005KT 10SM OVC027 M02/M07 A3032 RMK AO2 SLP275 T10221067 $
Loading
Personal Weather Stations






























Interactive Weather Map New forecast layout! Learn more

10-Day Weather Forecast

Advertisements
Track Severe Weather on mobile